Time;durP1;ratioP1;P1;durP2;ratioP2;P2;SDS_P1;SDS_P2;PMS_P1;PMS_P2;Temp;Humidity;BMP_temperature;BMP_pressure;BME280_temperature;BME280_humidity;BME280_pressure;Samples;Min_cycle;Max_cycle;Signal;HPM_P1;HPM_P2
2023/06/14 00:01:55;;;;;;;4.30;2.88;;;16.20;99.90;;;;;;4987598;28;20132;-72
2023/06/14 00:04:21;;;;;;;4.78;2.45;;;16.20;99.90;;;;;;5006769;28;20053;-74
2023/06/14 00:06:48;;;;;;;4.13;2.50;;;16.20;99.90;;;;;;5006435;28;20054;-73
2023/06/14 00:09:17;;;;;;;5.85;2.42;;;16.10;99.90;;;;;;4999054;28;20046;-73
2023/06/14 00:11:43;;;;;;;4.55;2.45;;;16.10;99.90;;;;;;5002746;28;20065;-74
2023/06/14 00:14:08;;;;;;;5.80;2.45;;;16.00;99.90;;;;;;5008113;28;20050;-73
2023/06/14 00:16:35;;;;;;;5.53;2.78;;;16.00;99.90;;;;;;4996401;28;20041;-73
2023/06/14 00:19:03;;;;;;;3.50;2.20;;;15.90;99.90;;;;;;5010116;28;20092;-73
2023/06/14 00:21:29;;;;;;;3.88;2.50;;;15.90;99.90;;;;;;5014106;28;20042;-73
2023/06/14 00:23:57;;;;;;;4.63;2.33;;;15.90;99.90;;;;;;4986504;28;20057;-73
2023/06/14 00:26:23;;;;;;;3.88;2.67;;;15.90;99.90;;;;;;4987970;28;20049;-73
2023/06/14 00:28:49;;;;;;;4.50;2.65;;;15.80;99.90;;;;;;5004414;28;20038;-73
2023/06/14 00:31:15;;;;;;;5.10;2.50;;;15.70;99.90;;;;;;4983644;28;20038;-73
2023/06/14 00:33:40;;;;;;;5.50;2.42;;;15.70;99.90;;;;;;5001690;28;20137;-73
2023/06/14 00:36:06;;;;;;;4.00;2.80;;;15.60;99.90;;;;;;5008593;28;20088;-73
2023/06/14 00:38:32;;;;;;;3.58;2.30;;;15.60;99.90;;;;;;5007699;28;20599;-73
2023/06/14 00:40:58;;;;;;;4.72;2.78;;;15.60;99.90;;;;;;4991636;28;20487;-73
2023/06/14 00:43:23;;;;;;;3.08;2.70;;;15.50;99.90;;;;;;4976052;28;20440;-73
2023/06/14 00:45:51;;;;;;;5.20;2.90;;;15.50;99.90;;;;;;5012452;28;20094;-73
2023/06/14 00:48:17;;;;;;;5.13;2.38;;;15.40;99.90;;;;;;5006603;28;20090;-72
2023/06/14 00:50:45;;;;;;;5.80;2.50;;;15.40;99.90;;;;;;5023326;28;20073;-72
2023/06/14 00:53:12;;;;;;;3.88;2.30;;;15.40;99.90;;;;;;5035520;28;20049;-73
2023/06/14 00:55:38;;;;;;;4.90;2.85;;;15.40;99.90;;;;;;5015532;28;20056;-74
2023/06/14 00:58:04;;;;;;;4.82;2.45;;;15.40;99.90;;;;;;5038541;28;20033;-74
2023/06/14 01:00:30;;;;;;;4.07;2.67;;;15.30;99.90;;;;;;5037542;28;20029;-73
2023/06/14 01:02:56;;;;;;;7.15;2.78;;;15.30;99.90;;;;;;5027710;28;20049;-73
2023/06/14 01:05:23;;;;;;;4.25;2.45;;;15.30;99.90;;;;;;5031459;28;20080;-74
2023/06/14 01:07:55;;;;;;;4.93;2.58;;;15.30;99.90;;;;;;5047224;28;20055;-74
2023/06/14 01:10:32;;;;;;;4.50;2.33;;;15.20;99.90;;;;;;5038177;28;20037;-74
2023/06/14 01:13:17;;;;;;;4.10;2.40;;;15.20;99.90;;;;;;5041741;28;20061;-74
2023/06/14 01:15:44;;;;;;;3.63;2.30;;;15.20;99.90;;;;;;5038286;28;20041;-75
2023/06/14 01:18:17;;;;;;;4.55;2.38;;;15.10;99.90;;;;;;5035005;28;20041;-73
2023/06/14 01:20:50;;;;;;;5.28;2.42;;;15.10;99.90;;;;;;5030686;28;20388;-74
2023/06/14 01:23:21;;;;;;;5.38;2.70;;;15.00;99.90;;;;;;5041040;28;20164;-75
2023/06/14 01:25:47;;;;;;;4.20;2.40;;;15.00;99.90;;;;;;5041279;28;20087;-74
2023/06/14 01:28:16;;;;;;;4.70;2.35;;;15.00;99.90;;;;;;5017380;28;20045;-74
2023/06/14 01:30:45;;;;;;;4.65;2.40;;;15.00;99.90;;;;;;5036651;28;20061;-74
2023/06/14 01:33:17;;;;;;;3.60;2.17;;;15.00;99.90;;;;;;5020326;28;20267;-73
2023/06/14 01:35:45;;;;;;;3.88;2.65;;;15.00;99.90;;;;;;5039419;28;20045;-73
2023/06/14 01:38:13;;;;;;;6.45;3.17;;;14.90;99.90;;;;;;5045076;28;20047;-74
2023/06/14 01:40:39;;;;;;;5.05;2.70;;;15.00;99.90;;;;;;5034365;28;20048;-73
2023/06/14 01:43:06;;;;;;;3.13;2.60;;;14.90;99.90;;;;;;5040435;28;20052;-72
2023/06/14 01:45:33;;;;;;;3.30;2.60;;;14.90;99.90;;;;;;5039938;28;20045;-74
2023/06/14 01:48:00;;;;;;;5.43;2.35;;;14.90;99.90;;;;;;5034117;28;20049;-72
2023/06/14 01:50:31;;;;;;;3.83;2.45;;;14.90;99.90;;;;;;5029966;28;20045;-72
2023/06/14 01:52:57;;;;;;;6.43;2.38;;;14.80;99.90;;;;;;5030596;28;20068;-74
2023/06/14 01:55:24;;;;;;;3.90;2.47;;;14.80;99.90;;;;;;5041619;28;20065;-74
2023/06/14 01:57:51;;;;;;;3.65;2.70;;;14.80;99.90;;;;;;5034199;28;20053;-74
2023/06/14 02:00:18;;;;;;;3.55;2.50;;;14.80;99.90;;;;;;5033696;28;20049;-74
2023/06/14 02:02:44;;;;;;;4.82;2.50;;;14.70;99.90;;;;;;5024292;28;20037;-74
2023/06/14 02:05:10;;;;;;;4.32;2.40;;;14.70;99.90;;;;;;5044710;28;20041;-74
2023/06/14 02:07:36;;;;;;;4.22;2.40;;;14.60;99.90;;;;;;5049127;28;20087;-74
2023/06/14 02:10:03;;;;;;;6.97;2.50;;;14.70;99.90;;;;;;5057971;28;20053;-74
2023/06/14 02:12:28;;;;;;;6.30;2.40;;;14.60;99.90;;;;;;5046288;28;20056;-74
2023/06/14 02:14:54;;;;;;;4.43;2.55;;;14.60;99.90;;;;;;5045476;28;20419;-73
2023/06/14 02:17:20;;;;;;;4.68;2.47;;;14.60;99.90;;;;;;5043403;28;20103;-73
2023/06/14 02:19:45;;;;;;;4.20;2.65;;;14.60;99.90;;;;;;5034445;28;20037;-74
2023/06/14 02:22:12;;;;;;;3.47;2.42;;;14.60;99.90;;;;;;5041391;28;20468;-74
2023/06/14 02:24:37;;;;;;;3.90;2.55;;;14.50;99.90;;;;;;5023942;28;20049;-74
2023/06/14 02:27:04;;;;;;;6.20;2.45;;;14.50;99.90;;;;;;5047408;28;20060;-74
2023/06/14 02:29:29;;;;;;;4.32;2.33;;;14.50;99.90;;;;;;5040327;28;20124;-74
2023/06/14 02:31:55;;;;;;;5.38;2.85;;;14.50;99.90;;;;;;5037763;28;20107;-73
2023/06/14 02:34:21;;;;;;;3.53;2.67;;;14.50;99.90;;;;;;5048460;28;20040;-73
2023/06/14 02:36:47;;;;;;;7.30;3.13;;;14.40;99.90;;;;;;5040550;28;20591;-74
2023/06/14 02:39:13;;;;;;;4.70;2.45;;;14.40;99.90;;;;;;5042609;28;20053;-73
2023/06/14 02:41:39;;;;;;;6.63;2.70;;;14.40;99.90;;;;;;5038930;28;20083;-73
2023/06/14 02:44:06;;;;;;;4.00;2.67;;;14.40;99.90;;;;;;5011845;28;20045;-74
2023/06/14 02:46:32;;;;;;;5.43;2.47;;;14.30;99.90;;;;;;5041756;28;20050;-73
2023/06/14 02:48:57;;;;;;;4.97;2.70;;;14.30;99.90;;;;;;5045922;28;20268;-74
2023/06/14 02:51:23;;;;;;;6.57;2.63;;;14.30;99.90;;;;;;5044357;28;20053;-74
2023/06/14 02:53:49;;;;;;;5.75;2.53;;;14.30;99.90;;;;;;5040824;28;20052;-74
2023/06/14 02:56:17;;;;;;;6.95;2.83;;;14.20;99.90;;;;;;5034255;28;20088;-73
2023/06/14 02:58:43;;;;;;;6.25;2.85;;;14.20;99.90;;;;;;5050314;28;20135;-73
2023/06/14 03:01:12;;;;;;;5.20;2.90;;;14.20;99.90;;;;;;5007019;28;20504;-73
2023/06/14 03:03:38;;;;;;;6.00;2.95;;;14.10;99.90;;;;;;5036974;28;20057;-74
2023/06/14 03:06:05;;;;;;;5.28;2.92;;;14.10;99.90;;;;;;5045516;28;20045;-73
2023/06/14 03:08:38;;;;;;;5.05;2.92;;;14.10;99.90;;;;;;5046375;28;20068;-74
2023/06/14 03:11:07;;;;;;;5.75;2.90;;;14.10;99.90;;;;;;5045426;28;20078;-74
2023/06/14 03:13:34;;;;;;;8.38;2.58;;;14.10;99.90;;;;;;5027772;28;20487;-74
2023/06/14 03:16:02;;;;;;;4.88;2.50;;;14.00;99.90;;;;;;5042072;28;20076;-74
2023/06/14 03:18:30;;;;;;;3.75;3.00;;;14.00;99.90;;;;;;5041412;28;20432;-74
2023/06/14 03:20:57;;;;;;;5.40;2.97;;;14.00;99.90;;;;;;5039746;28;20073;-74
2023/06/14 03:23:26;;;;;;;8.00;3.45;;;14.00;99.90;;;;;;5043885;28;20041;-74
2023/06/14 03:25:52;;;;;;;7.67;2.90;;;14.00;99.90;;;;;;5023230;28;20052;-73
2023/06/14 03:28:18;;;;;;;4.03;3.17;;;14.00;99.90;;;;;;5044041;28;20094;-73
2023/06/14 03:30:44;;;;;;;4.50;3.35;;;14.00;99.90;;;;;;5043241;28;20053;-74
2023/06/14 03:33:10;;;;;;;6.22;3.10;;;14.00;99.90;;;;;;5047252;28;20101;-75
2023/06/14 03:35:36;;;;;;;4.88;2.95;;;14.00;99.90;;;;;;5030036;28;20075;-75
2023/06/14 03:38:03;;;;;;;4.80;2.83;;;14.10;99.90;;;;;;5037064;28;20037;-75
2023/06/14 03:40:29;;;;;;;6.57;3.10;;;14.10;99.90;;;;;;5043147;28;20394;-75
2023/06/14 03:42:55;;;;;;;6.75;3.28;;;14.30;99.90;;;;;;5020096;28;20128;-74
2023/06/14 03:45:21;;;;;;;4.78;3.28;;;14.60;99.90;;;;;;5025708;28;20055;-75
2023/06/14 03:47:47;;;;;;;5.88;3.20;;;14.90;99.90;;;;;;5043296;28;20404;-74
2023/06/14 03:50:13;;;;;;;5.38;2.90;;;15.00;99.90;;;;;;5042344;28;20050;-75
2023/06/14 03:52:39;;;;;;;6.30;3.22;;;14.90;99.90;;;;;;5022085;28;20862;-75
2023/06/14 03:55:05;;;;;;;4.03;2.80;;;14.80;99.90;;;;;;5041581;28;20138;-75
2023/06/14 03:57:31;;;;;;;4.93;2.83;;;14.60;99.90;;;;;;5038681;28;20044;-75
2023/06/14 03:59:57;;;;;;;5.65;2.97;;;14.60;99.90;;;;;;5049257;28;20040;-75
2023/06/14 04:02:23;;;;;;;6.93;3.20;;;14.50;99.90;;;;;;5000881;28;20046;-75
2023/06/14 04:04:49;;;;;;;4.07;3.50;;;14.50;99.90;;;;;;5038762;28;20051;-73
2023/06/14 04:07:19;;;;;;;4.80;3.25;;;14.50;99.90;;;;;;5043933;28;20049;-73
2023/06/14 04:09:45;;;;;;;6.13;3.00;;;14.40;99.90;;;;;;5039938;28;20049;-75
2023/06/14 04:12:14;;;;;;;5.15;3.13;;;14.40;99.90;;;;;;5040907;28;20088;-74
2023/06/14 04:14:40;;;;;;;4.63;3.17;;;14.40;99.90;;;;;;5053990;28;20129;-74
2023/06/14 04:17:06;;;;;;;6.97;3.30;;;14.40;99.90;;;;;;5024130;28;20045;-74
2023/06/14 04:19:32;;;;;;;5.32;3.10;;;14.40;99.90;;;;;;5037443;28;20060;-75
2023/06/14 04:22:01;;;;;;;4.53;3.10;;;14.40;99.90;;;;;;5043084;28;20086;-74
2023/06/14 04:24:31;;;;;;;9.00;3.60;;;14.50;99.90;;;;;;5010388;28;20080;-74
2023/06/14 04:27:03;;;;;;;6.68;3.30;;;14.50;99.90;;;;;;5036815;28;20053;-74
2023/06/14 04:29:29;;;;;;;;;;;14.50;99.90;;;;;;5048978;28;20065;-74
2023/06/14 04:31:58;;;;;;;7.13;3.20;;;14.60;99.90;;;;;;5044441;28;20454;-74
2023/06/14 04:34:29;;;;;;;4.57;3.58;;;14.70;99.90;;;;;;5038741;28;20535;-74
2023/06/14 04:36:59;;;;;;;6.07;3.60;;;14.80;99.90;;;;;;5042343;28;20052;-75
2023/06/14 04:39:25;;;;;;;7.57;3.72;;;14.80;99.90;;;;;;5043670;28;20037;-73
2023/06/14 04:41:52;;;;;;;5.70;3.65;;;14.80;99.90;;;;;;5030248;28;20059;-74
2023/06/14 04:44:19;;;;;;;5.15;3.72;;;14.90;99.90;;;;;;5043761;28;20108;-76
2023/06/14 04:46:46;;;;;;;5.80;3.83;;;15.10;99.90;;;;;;5042085;28;20059;-74
2023/06/14 04:49:16;;;;;;;5.78;3.83;;;15.30;99.90;;;;;;5036919;28;20041;-73
2023/06/14 04:51:43;;;;;;;5.15;3.40;;;15.40;99.90;;;;;;5054644;28;20443;-73
2023/06/14 04:54:16;;;;;;;5.40;3.78;;;15.40;99.90;;;;;;5066555;28;20048;-74
2023/06/14 04:56:42;;;;;;;6.00;4.10;;;15.30;99.90;;;;;;5023156;28;20056;-75
2023/06/14 04:59:08;;;;;;;5.55;3.97;;;15.30;99.90;;;;;;5024360;28;20036;-74
2023/06/14 05:01:35;;;;;;;5.13;3.67;;;15.30;99.90;;;;;;5047794;28;20041;-73
2023/06/14 05:04:01;;;;;;;5.38;3.88;;;15.30;99.90;;;;;;5042155;28;20074;-74
2023/06/14 05:06:27;;;;;;;6.47;4.00;;;15.30;99.90;;;;;;5043494;28;20045;-74
2023/06/14 05:08:53;;;;;;;7.30;4.28;;;15.40;99.90;;;;;;5027044;28;20373;-74
2023/06/14 05:11:19;;;;;;;5.65;3.97;;;15.40;99.90;;;;;;5040678;28;20041;-74
2023/06/14 05:13:46;;;;;;;6.45;3.60;;;15.50;99.90;;;;;;5046008;28;20076;-74
2023/06/14 05:16:12;;;;;;;5.30;3.65;;;15.50;99.90;;;;;;5044511;28;20087;-74
2023/06/14 05:18:40;;;;;;;6.97;4.10;;;15.60;99.90;;;;;;5005077;28;20048;-74
2023/06/14 05:21:05;;;;;;;8.70;3.85;;;15.60;99.90;;;;;;5043452;28;20045;-73
2023/06/14 05:23:31;;;;;;;5.55;3.83;;;15.70;99.90;;;;;;5031853;28;20033;-74
2023/06/14 05:25:57;;;;;;;7.13;4.40;;;15.70;99.90;;;;;;5057335;28;20052;-74
2023/06/14 05:28:24;;;;;;;6.65;4.53;;;15.80;99.90;;;;;;5046648;28;20033;-74
2023/06/14 05:30:49;;;;;;;6.35;4.40;;;15.80;99.90;;;;;;5051531;28;20051;-73
2023/06/14 05:33:15;;;;;;;10.93;4.65;;;15.90;99.90;;;;;;5035253;28;20041;-73
2023/06/14 05:35:41;;;;;;;7.90;4.40;;;15.90;99.90;;;;;;5042256;28;20041;-73
2023/06/14 05:38:07;;;;;;;6.45;3.97;;;16.00;99.90;;;;;;5057625;28;20041;-73
2023/06/14 05:40:33;;;;;;;8.57;4.15;;;16.10;99.90;;;;;;5028293;28;20272;-74
2023/06/14 05:42:59;;;;;;;5.03;3.92;;;16.20;99.90;;;;;;5041958;28;20421;-85
2023/06/14 05:45:25;;;;;;;8.20;3.97;;;16.30;99.90;;;;;;5025890;28;20487;-82
2023/06/14 05:47:52;;;;;;;7.75;5.05;;;16.40;99.90;;;;;;5022173;28;20061;-86
2023/06/14 05:50:17;;;;;;;9.95;4.03;;;16.50;99.90;;;;;;5009338;28;20065;-76
2023/06/14 05:52:43;;;;;;;6.47;4.32;;;16.50;99.90;;;;;;5026964;28;20053;-76
2023/06/14 05:55:11;;;;;;;5.85;4.20;;;16.70;99.90;;;;;;5048761;28;20041;-76
2023/06/14 05:57:38;;;;;;;6.30;4.47;;;16.70;99.90;;;;;;5039364;28;20044;-76
2023/06/14 06:00:16;;;;;;;7.63;4.45;;;16.90;99.90;;;;;;5026594;28;20041;-75
2023/06/14 06:02:43;;;;;;;6.47;4.10;;;17.10;99.90;;;;;;5038790;28;20285;-76
2023/06/14 06:05:12;;;;;;;7.57;4.60;;;17.20;99.90;;;;;;5059747;28;20041;-76
2023/06/14 06:07:40;;;;;;;6.47;3.95;;;17.40;99.90;;;;;;5058108;28;20055;-76
2023/06/14 06:10:06;;;;;;;7.43;4.07;;;17.60;99.90;;;;;;5031553;28;20401;-73
2023/06/14 06:12:32;;;;;;;5.90;4.50;;;17.80;99.90;;;;;;5054329;28;20135;-75
2023/06/14 06:14:59;;;;;;;10.60;3.88;;;17.90;99.90;;;;;;5059746;28;20052;-77
2023/06/14 06:17:26;;;;;;;7.30;4.28;;;18.10;99.90;;;;;;5046101;28;20403;-76
2023/06/14 06:19:51;;;;;;;6.60;4.00;;;18.30;99.90;;;;;;5044866;28;20055;-76
2023/06/14 06:22:17;;;;;;;6.07;4.05;;;18.50;99.90;;;;;;5045697;28;20044;-76
2023/06/14 06:24:43;;;;;;;5.90;3.80;;;18.70;99.90;;;;;;5041446;28;20057;-73
2023/06/14 06:27:09;;;;;;;7.97;4.05;;;18.90;99.90;;;;;;5051526;28;20049;-74
2023/06/14 06:29:35;;;;;;;6.90;3.65;;;19.10;99.90;;;;;;5032537;28;20076;-78
2023/06/14 06:32:01;;;;;;;4.40;3.47;;;19.20;99.90;;;;;;5024033;28;20033;-79
2023/06/14 06:34:27;;;;;;;7.68;3.22;;;19.40;99.90;;;;;;5066840;28;20041;-76
2023/06/14 06:36:53;;;;;;;5.43;3.03;;;19.60;99.90;;;;;;5058328;28;20052;-77
2023/06/14 06:39:19;;;;;;;5.13;3.30;;;19.70;99.90;;;;;;5037386;28;20059;-78
2023/06/14 06:41:44;;;;;;;5.00;3.47;;;19.80;99.90;;;;;;5056259;28;20037;-78
2023/06/14 06:44:10;;;;;;;3.75;2.80;;;20.00;99.90;;;;;;5056173;28;20044;-87
2023/06/14 06:46:39;;;;;;;7.45;3.50;;;20.10;99.90;;;;;;5041812;28;20029;-84
2023/06/14 06:49:06;;;;;;;4.05;3.22;;;20.30;99.90;;;;;;5020239;28;20032;-81
2023/06/14 06:51:32;;;;;;;5.10;2.90;;;20.40;99.90;;;;;;5046687;28;20052;-79
2023/06/14 06:53:58;;;;;;;4.13;3.10;;;20.60;99.90;;;;;;5041577;28;20045;-80
2023/06/14 06:56:24;;;;;;;5.05;2.90;;;20.60;99.90;;;;;;5045420;28;20049;-83
2023/06/14 06:58:50;;;;;;;5.43;3.20;;;20.70;99.90;;;;;;5025935;28;20071;-82
2023/06/14 07:01:18;;;;;;;3.95;2.88;;;20.70;99.90;;;;;;5027354;28;20091;-83
2023/06/14 07:03:44;;;;;;;3.50;2.92;;;20.80;99.90;;;;;;5058881;28;20108;-84
2023/06/14 07:06:10;;;;;;;5.93;3.17;;;21.00;99.90;;;;;;5033388;28;20077;-81
2023/06/14 07:08:38;;;;;;;4.15;2.97;;;21.10;99.90;;;;;;5045343;28;20049;-81
2023/06/14 07:11:04;;;;;;;5.25;2.92;;;21.10;99.90;;;;;;5044419;28;20195;-82
2023/06/14 07:13:30;;;;;;;4.47;2.92;;;21.30;99.90;;;;;;5025760;28;20034;-81
2023/06/14 07:15:58;;;;;;;4.57;2.83;;;21.40;99.90;;;;;;5063949;28;20047;-82
2023/06/14 07:18:25;;;;;;;6.55;3.17;;;21.50;99.90;;;;;;5040592;28;20048;-80
2023/06/14 07:20:51;;;;;;;3.67;3.20;;;21.50;99.90;;;;;;5043457;28;20087;-83
2023/06/14 07:23:17;;;;;;;6.32;3.47;;;21.40;99.50;;;;;;5044039;28;20151;-83
2023/06/14 07:25:43;;;;;;;8.00;3.17;;;21.50;97.80;;;;;;5035281;28;20049;-81
2023/06/14 07:28:09;;;;;;;6.47;3.30;;;21.50;97.40;;;;;;5008778;28;20049;-80
2023/06/14 07:30:35;;;;;;;4.22;3.22;;;21.60;99.00;;;;;;5022523;28;20045;-81
2023/06/14 07:33:01;;;;;;;3.55;2.70;;;21.70;95.00;;;;;;5047556;28;20041;-76
2023/06/14 07:35:26;;;;;;;4.45;2.90;;;21.80;97.40;;;;;;5036309;28;20177;-77
2023/06/14 07:37:52;;;;;;;5.47;2.90;;;21.90;95.30;;;;;;5031329;28;20045;-76
2023/06/14 07:40:18;;;;;;;3.72;2.75;;;22.00;93.70;;;;;;5057344;28;20040;-77
2023/06/14 07:42:44;;;;;;;4.68;3.00;;;22.00;91.20;;;;;;5056985;28;20037;-76
2023/06/14 07:45:11;;;;;;;5.65;3.08;;;22.10;90.00;;;;;;5040465;28;20752;-77
2023/06/14 07:47:37;;;;;;;5.45;3.10;;;22.20;87.90;;;;;;5041735;28;20317;-77
2023/06/14 07:50:03;;;;;;;4.97;2.45;;;22.30;86.40;;;;;;5040127;28;20055;-77
2023/06/14 07:52:29;;;;;;;3.08;2.70;;;22.30;82.60;;;;;;5038185;28;20049;-76
2023/06/14 07:54:55;;;;;;;2.95;2.63;;;22.40;80.60;;;;;;5036226;28;20049;-76
2023/06/14 07:57:20;;;;;;;4.20;2.90;;;22.40;78.60;;;;;;5056496;28;20053;-76
2023/06/14 07:59:46;;;;;;;4.07;2.85;;;22.50;79.60;;;;;;5036970;28;21448;-76
2023/06/14 08:02:12;;;;;;;4.38;2.85;;;22.60;78.10;;;;;;5042632;28;20041;-77
2023/06/14 08:04:38;;;;;;;3.30;2.50;;;22.70;76.60;;;;;;5054401;28;20041;-76
2023/06/14 08:07:04;;;;;;;3.58;2.70;;;22.70;74.30;;;;;;5027712;28;20158;-76
2023/06/14 08:09:30;;;;;;;4.10;2.70;;;22.80;74.30;;;;;;5031879;28;21017;-76
2023/06/14 08:11:56;;;;;;;5.25;3.05;;;22.90;72.90;;;;;;5054261;28;20242;-76
2023/06/14 08:14:22;;;;;;;5.32;2.85;;;22.90;71.60;;;;;;5032818;28;20049;-76
2023/06/14 08:16:48;;;;;;;4.45;2.60;;;23.00;71.60;;;;;;5032564;28;20614;-76
2023/06/14 08:19:16;;;;;;;4.60;3.10;;;23.00;71.40;;;;;;5034110;28;20044;-76
2023/06/14 08:21:43;;;;;;;6.97;2.90;;;22.90;70.30;;;;;;5039482;28;20053;-76
2023/06/14 08:24:12;;;;;;;6.07;2.75;;;22.80;71.00;;;;;;5043918;28;20033;-76
2023/06/14 08:26:39;;;;;;;4.60;2.92;;;23.00;71.40;;;;;;5030803;28;20048;-76
2023/06/14 08:29:06;;;;;;;4.78;2.75;;;23.20;71.40;;;;;;5053243;28;20036;-76
2023/06/14 08:31:33;;;;;;;18.13;4.00;;;23.40;69.80;;;;;;5057288;28;20087;-77
2023/06/14 08:33:58;;;;;;;5.00;2.80;;;23.50;68.10;;;;;;5034214;28;20054;-76
2023/06/14 08:36:24;;;;;;;5.97;2.70;;;23.50;69.10;;;;;;5056657;28;20158;-76
2023/06/14 08:38:50;;;;;;;5.45;2.85;;;23.50;67.90;;;;;;5047464;28;20044;-76
2023/06/14 08:41:22;;;;;;;4.65;2.67;;;23.70;67.90;;;;;;5023830;28;20045;-76
2023/06/14 08:43:48;;;;;;;4.43;2.47;;;23.70;67.70;;;;;;5052582;28;20077;-76
2023/06/14 08:46:19;;;;;;;4.35;2.90;;;23.80;67.30;;;;;;5035595;28;20099;-77
2023/06/14 08:48:48;;;;;;;4.57;3.13;;;23.90;66.60;;;;;;5027765;28;20079;-76
2023/06/14 08:51:15;;;;;;;5.80;2.97;;;24.00;67.50;;;;;;5023948;28;20045;-76
2023/06/14 08:53:43;;;;;;;4.32;2.83;;;24.10;66.80;;;;;;5056500;28;20075;-76
2023/06/14 08:56:13;;;;;;;6.63;2.60;;;23.90;65.50;;;;;;5038910;28;20049;-76
2023/06/14 08:58:49;;;;;;;4.70;2.88;;;24.00;66.60;;;;;;5053417;28;20149;-76
2023/06/14 09:01:17;;;;;;;6.43;2.95;;;24.00;65.70;;;;;;5043856;28;20097;-74
2023/06/14 09:03:44;;;;;;;9.02;2.85;;;24.10;65.30;;;;;;5046863;28;20053;-77
2023/06/14 09:06:13;;;;;;;6.75;2.55;;;24.00;64.50;;;;;;5023687;28;20135;-76
2023/06/14 09:08:48;;;;;;;4.30;2.60;;;24.10;64.30;;;;;;5055566;28;20124;-75
2023/06/14 09:11:15;;;;;;;2.85;2.55;;;24.10;64.00;;;;;;5014493;28;20108;-76
2023/06/14 09:13:42;;;;;;;5.60;2.80;;;24.10;63.90;;;;;;5036843;28;20044;-76
2023/06/14 09:16:08;;;;;;;6.70;2.58;;;24.20;63.30;;;;;;5013647;28;20119;-77
2023/06/14 09:18:43;;;;;;;4.07;2.40;;;24.40;63.20;;;;;;5036877;28;20116;-75
2023/06/14 09:21:10;;;;;;;8.63;3.00;;;24.60;63.20;;;;;;5052939;28;20044;-90
2023/06/14 09:23:46;;;;;;;3.17;2.20;;;24.60;62.30;;;;;;5021417;28;20036;-81
2023/06/14 09:26:13;;;;;;;9.15;2.58;;;24.70;62.20;;;;;;5021221;28;20045;-81
2023/06/14 09:28:46;;;;;;;5.10;2.50;;;24.50;61.30;;;;;;5029399;28;20075;-81
2023/06/14 09:31:14;;;;;;;4.57;2.20;;;24.40;60.30;;;;;;5036567;28;20388;-82
2023/06/14 09:33:47;;;;;;;5.30;2.45;;;24.40;60.90;;;;;;5029144;28;20083;-82
2023/06/14 09:36:22;;;;;;;5.03;2.25;;;24.50;60.40;;;;;;5054531;28;20033;-80
2023/06/14 09:39:08;;;;;;;3.97;2.20;;;24.60;60.20;;;;;;5020287;28;20483;-80
2023/06/14 09:41:37;;;;;;;25.77;3.22;;;24.60;59.50;;;;;;5047549;28;20056;-81
2023/06/14 09:44:08;;;;;;;5.70;2.38;;;24.40;59.00;;;;;;5027542;28;20041;-80
2023/06/14 09:46:35;;;;;;;5.33;2.43;;;24.50;59.40;;;;;;5052712;28;20064;-81
2023/06/14 09:49:01;;;;;;;3.40;1.98;;;24.60;59.10;;;;;;5028783;28;20056;-80
2023/06/14 09:51:31;;;;;;;4.68;2.08;;;24.90;58.70;;;;;;5052168;28;20532;-80
2023/06/14 09:54:04;;;;;;;2.75;1.60;;;25.10;58.00;;;;;;5054038;28;20037;-80
2023/06/14 09:56:41;;;;;;;2.65;1.70;;;25.20;56.60;;;;;;5024491;28;20603;-80
2023/06/14 09:59:09;;;;;;;4.43;2.42;;;25.10;56.20;;;;;;5055927;28;20055;-79
2023/06/14 10:01:42;;;;;;;4.40;2.22;;;25.00;56.90;;;;;;5043549;28;20059;-81
2023/06/14 10:04:09;;;;;;;2.97;2.00;;;24.80;56.90;;;;;;5041472;28;20114;-80
2023/06/14 10:06:46;;;;;;;3.60;1.70;;;24.80;57.70;;;;;;5047103;28;20036;-80
2023/06/14 10:09:12;;;;;;;3.33;1.88;;;25.00;56.40;;;;;;5055560;28;20040;-79
2023/06/14 10:11:43;;;;;;;8.70;2.72;;;25.10;57.20;;;;;;5047758;28;20041;-80
2023/06/14 10:14:11;;;;;;;4.90;1.85;;;25.30;55.50;;;;;;5013774;28;20084;-79
2023/06/14 10:16:47;;;;;;;11.75;2.15;;;25.20;54.20;;;;;;5002956;28;20045;-81
2023/06/14 10:19:22;;;;;;;2.92;1.58;;;25.10;53.90;;;;;;5044365;28;20044;-81
2023/06/14 10:21:59;;;;;;;2.53;1.75;;;25.10;53.80;;;;;;5014627;28;20045;-81
2023/06/14 10:24:33;;;;;;;4.28;1.40;;;25.10;54.00;;;;;;5057431;28;20049;-80
2023/06/14 10:27:01;;;;;;;5.90;1.67;;;25.30;53.90;;;;;;5040695;28;20072;-81
2023/06/14 10:29:31;;;;;;;12.02;1.98;;;25.40;53.50;;;;;;5059833;28;20047;-81
2023/06/14 10:31:59;;;;;;;6.32;1.70;;;25.40;53.00;;;;;;5049713;28;20045;-81
2023/06/14 10:34:30;;;;;;;2.17;1.58;;;25.30;53.60;;;;;;5040905;28;20050;-80
2023/06/14 10:37:10;;;;;;;3.47;1.98;;;25.50;53.60;;;;;;5057251;28;20130;-80
2023/06/14 10:39:40;;;;;;;3.67;1.85;;;25.60;53.20;;;;;;5037957;28;20146;-81
2023/06/14 10:42:06;;;;;;;2.80;1.35;;;25.70;53.00;;;;;;5035791;28;20055;-81
2023/06/14 10:44:33;;;;;;;4.90;1.90;;;25.80;53.20;;;;;;5041076;28;20053;-81
2023/06/14 10:47:00;;;;;;;3.28;1.75;;;25.90;52.80;;;;;;5040237;28;20087;-81
2023/06/14 10:49:51;;;;;;;4.38;2.05;;;26.10;54.20;;;;;;5040199;28;20048;-81
2023/06/14 10:52:21;;;;;;;5.37;1.50;;;26.10;52.80;;;;;;5035679;28;20057;-80
2023/06/14 10:55:06;;;;;;;3.58;1.67;;;26.10;52.70;;;;;;5037920;28;20638;-81
2023/06/14 10:57:33;;;;;;;8.38;2.00;;;26.20;53.20;;;;;;5033955;28;20104;-80
2023/06/14 11:00:00;;;;;;;3.58;1.83;;;26.30;52.90;;;;;;5045567;28;20044;-81
2023/06/14 11:03:08;;;;;;;3.33;1.75;;;26.30;52.60;;;;;;5060865;28;20104;-80
2023/06/14 11:05:53;;;;;;;6.55;1.95;;;26.10;51.00;;;;;;5031003;28;20538;-81
2023/06/14 11:08:45;;;;;;;4.43;1.50;;;26.20;51.60;;;;;;5042335;28;20050;-80
2023/06/14 11:11:13;;;;;;;7.05;1.90;;;25.90;51.90;;;;;;5045631;28;20045;-81
2023/06/14 11:13:42;;;;;;;3.25;1.80;;;25.80;51.70;;;;;;5046007;28;20033;-89
2023/06/14 11:16:12;;;;;;;1.80;1.70;;;25.90;52.10;;;;;;5054606;28;20045;-87
2023/06/14 11:18:38;;;;;;;2.53;1.77;;;26.00;51.90;;;;;;5045241;28;20045;-80
2023/06/14 11:21:04;;;;;;;3.20;1.70;;;26.10;52.10;;;;;;5028768;28;20046;-80
2023/06/14 11:23:30;;;;;;;4.78;1.85;;;26.40;52.50;;;;;;5033180;28;20081;-80
2023/06/14 11:25:55;;;;;;;6.05;2.00;;;26.40;52.30;;;;;;5029590;28;20048;-79
2023/06/14 11:28:21;;;;;;;3.25;1.80;;;26.60;52.20;;;;;;5055275;28;20539;-80
2023/06/14 11:30:48;;;;;;;2.92;2.00;;;26.50;52.00;;;;;;5054169;28;20173;-79
2023/06/14 11:33:20;;;;;;;3.67;1.75;;;26.60;52.30;;;;;;5042781;28;20047;-80
2023/06/14 11:35:46;;;;;;;2.60;2.15;;;26.70;53.00;;;;;;5059251;28;20056;-81
2023/06/14 11:38:13;;;;;;;4.82;1.90;;;26.90;52.00;;;;;;5047759;28;20092;-79
2023/06/14 11:40:39;;;;;;;2.78;1.30;;;26.90;52.10;;;;;;5063399;28;20041;-81
2023/06/14 11:43:05;;;;;;;3.17;1.90;;;27.10;52.90;;;;;;5029852;28;20045;-80
2023/06/14 11:45:31;;;;;;;2.90;1.83;;;27.20;52.90;;;;;;5045777;28;20082;-80
2023/06/14 11:48:00;;;;;;;4.85;2.00;;;27.20;52.80;;;;;;5068182;28;20066;-80
2023/06/14 11:50:27;;;;;;;3.67;1.67;;;27.30;53.00;;;;;;5048641;28;20066;-82
2023/06/14 11:52:57;;;;;;;3.03;1.63;;;27.20;52.10;;;;;;5057620;28;20041;-81
2023/06/14 11:55:23;;;;;;;2.45;1.83;;;27.20;51.60;;;;;;5048503;28;20055;-81
2023/06/14 11:57:49;;;;;;;2.13;1.92;;;27.30;52.20;;;;;;5024065;28;20045;-79
2023/06/14 12:00:16;;;;;;;2.85;1.63;;;27.30;51.60;;;;;;5065396;28;20369;-79
2023/06/14 12:02:42;;;;;;;2.60;1.67;;;27.30;51.70;;;;;;5060324;28;20092;-80
2023/06/14 12:05:11;;;;;;;2.40;1.73;;;27.40;51.40;;;;;;5063034;28;20092;-81
2023/06/14 12:07:39;;;;;;;10.93;2.58;;;27.20;50.70;;;;;;5065768;28;20041;-81
2023/06/14 12:10:10;;;;;;;3.38;1.88;;;27.20;51.20;;;;;;5063118;28;20047;-80
2023/06/14 12:12:38;;;;;;;4.35;1.85;;;27.20;51.10;;;;;;5065190;28;20033;-80
2023/06/14 12:15:06;;;;;;;7.78;1.80;;;27.20;51.00;;;;;;5036386;28;20041;-80
2023/06/14 12:17:36;;;;;;;4.13;1.73;;;26.90;50.50;;;;;;5043509;28;20829;-81
2023/06/14 12:20:15;;;;;;;6.00;2.13;;;26.50;50.70;;;;;;5064594;28;20111;-80
2023/06/14 12:22:52;;;;;;;4.20;1.80;;;26.30;51.40;;;;;;5041961;28;20052;-80
2023/06/14 12:25:34;;;;;;;6.70;2.00;;;26.10;51.80;;;;;;5060866;28;20033;-81
2023/06/14 12:28:10;;;;;;;2.25;1.80;;;26.20;51.90;;;;;;5039170;28;20041;-80
2023/06/14 12:30:37;;;;;;;50.90;5.60;;;25.90;51.80;;;;;;5044830;28;20044;-80
2023/06/14 12:33:04;;;;;;;52.92;6.43;;;25.70;52.00;;;;;;5049038;28;20068;-81
2023/06/14 12:35:29;;;;;;;5.28;2.10;;;25.80;52.70;;;;;;5055447;28;20060;-80
2023/06/14 12:37:56;;;;;;;2.72;1.73;;;25.80;51.80;;;;;;5060599;28;20041;-80
2023/06/14 12:40:22;;;;;;;4.28;2.10;;;26.10;52.20;;;;;;5065613;28;20037;-80
2023/06/14 12:42:48;;;;;;;3.42;1.88;;;26.20;53.10;;;;;;5065189;28;20092;-79
2023/06/14 12:45:14;;;;;;;3.40;1.73;;;26.50;52.80;;;;;;5038356;28;20555;-79
2023/06/14 12:47:40;;;;;;;3.45;2.15;;;26.80;52.40;;;;;;5046544;28;20037;-79
2023/06/14 12:50:06;;;;;;;2.13;1.75;;;27.10;52.20;;;;;;5057558;28;20052;-80
2023/06/14 12:52:35;;;;;;;23.90;3.97;;;27.20;51.50;;;;;;5043035;28;20075;-80